sensor_id;sensor_type;location;lat;lon;timestamp;pressure;altitude;pressure_sealevel;temperature;humidity
5356;BME280;70449;52.486;13.386;2023-06-01T00:01:14;101213.72;;;19.07;100.00
5356;BME280;70449;52.486;13.386;2023-06-01T00:03:43;101221.25;;;18.85;100.00
5356;BME280;70449;52.486;13.386;2023-06-01T00:06:11;101216.00;;;19.13;100.00
5356;BME280;70449;52.486;13.386;2023-06-01T00:08:38;101221.13;;;19.02;100.00
5356;BME280;70449;52.486;13.386;2023-06-01T00:11:06;101218.56;;;18.97;100.00
5356;BME280;70449;52.486;13.386;2023-06-01T00:13:33;101215.84;;;19.10;100.00
5356;BME280;70449;52.486;13.386;2023-06-01T00:16:01;101213.00;;;18.97;100.00
5356;BME280;70449;52.486;13.386;2023-06-01T00:18:28;101219.44;;;18.59;100.00
5356;BME280;70449;52.486;13.386;2023-06-01T00:20:57;101219.22;;;18.73;100.00
5356;BME280;70449;52.486;13.386;2023-06-01T00:23:26;101218.97;;;18.87;100.00
5356;BME280;70449;52.486;13.386;2023-06-01T00:25:54;101220.69;;;18.71;100.00
5356;BME280;70449;52.486;13.386;2023-06-01T00:28:21;101225.09;;;18.42;100.00
5356;BME280;70449;52.486;13.386;2023-06-01T00:30:48;101218.09;;;18.66;100.00
5356;BME280;70449;52.486;13.386;2023-06-01T00:33:17;101217.16;;;18.62;100.00
5356;BME280;70449;52.486;13.386;2023-06-01T00:35:45;101213.81;;;18.77;100.00
5356;BME280;70449;52.486;13.386;2023-06-01T00:38:14;101216.00;;;18.63;100.00
5356;BME280;70449;52.486;13.386;2023-06-01T00:40:41;101212.47;;;18.53;100.00
5356;BME280;70449;52.486;13.386;2023-06-01T00:43:09;101217.81;;;18.58;100.00
5356;BME280;70449;52.486;13.386;2023-06-01T00:45:38;101217.06;;;18.79;100.00
5356;BME280;70449;52.486;13.386;2023-06-01T00:48:05;101213.97;;;18.72;100.00
5356;BME280;70449;52.486;13.386;2023-06-01T00:50:33;101218.09;;;18.66;100.00
5356;BME280;70449;52.486;13.386;2023-06-01T00:53:05;101219.22;;;18.73;100.00
5356;BME280;70449;52.486;13.386;2023-06-01T00:55:34;101211.31;;;18.84;100.00
5356;BME280;70449;52.486;13.386;2023-06-01T00:58:02;101214.88;;;18.34;100.00
5356;BME280;70449;52.486;13.386;2023-06-01T01:00:30;101210.28;;;18.38;100.00
5356;BME280;70449;52.486;13.386;2023-06-01T01:02:57;101213.41;;;18.28;100.00
5356;BME280;70449;52.486;13.386;2023-06-01T01:05:26;101219.72;;;18.07;100.00
5356;BME280;70449;52.486;13.386;2023-06-01T01:08:00;101220.41;;;17.96;100.00
5356;BME280;70449;52.486;13.386;2023-06-01T01:10:37;101222.03;;;18.05;100.00
5356;BME280;70449;52.486;13.386;2023-06-01T01:13:11;101212.75;;;17.93;100.00
5356;BME280;70449;52.486;13.386;2023-06-01T01:15:49;101207.94;;;18.10;100.00
5356;BME280;70449;52.486;13.386;2023-06-01T01:18:24;101215.72;;;18.26;100.00
5356;BME280;70449;52.486;13.386;2023-06-01T01:20:59;101219.50;;;18.21;100.00
5356;BME280;70449;52.486;13.386;2023-06-01T01:23:55;101216.75;;;18.12;100.00
5356;BME280;70449;52.486;13.386;2023-06-01T01:26:51;101214.28;;;17.73;100.00
5356;BME280;70449;52.486;13.386;2023-06-01T01:29:23;101218.28;;;18.31;100.00
5356;BME280;70449;52.486;13.386;2023-06-01T01:31:53;101213.63;;;18.23;100.00
5356;BME280;70449;52.486;13.386;2023-06-01T01:34:22;101211.88;;;18.09;100.00
5356;BME280;70449;52.486;13.386;2023-06-01T01:36:52;101213.75;;;17.88;100.00
5356;BME280;70449;52.486;13.386;2023-06-01T01:39:20;101217.72;;;18.17;100.00
5356;BME280;70449;52.486;13.386;2023-06-01T01:41:47;101211.50;;;18.20;100.00
5356;BME280;70449;52.486;13.386;2023-06-01T01:44:14;101211.97;;;17.83;100.00
5356;BME280;70449;52.486;13.386;2023-06-01T01:46:52;101211.72;;;18.06;100.00
5356;BME280;70449;52.486;13.386;2023-06-01T01:49:26;101206.34;;;17.45;100.00
5356;BME280;70449;52.486;13.386;2023-06-01T01:52:01;101204.72;;;17.44;100.00
5356;BME280;70449;52.486;13.386;2023-06-01T01:54:30;101204.53;;;17.49;100.00
5356;BME280;70449;52.486;13.386;2023-06-01T01:57:00;101203.41;;;17.33;100.00
5356;BME280;70449;52.486;13.386;2023-06-01T01:59:28;101199.16;;;17.44;100.00
5356;BME280;70449;52.486;13.386;2023-06-01T02:01:57;101200.00;;;17.18;100.00
5356;BME280;70449;52.486;13.386;2023-06-01T02:04:25;101199.03;;;16.97;100.00
5356;BME280;70449;52.486;13.386;2023-06-01T02:06:52;101198.38;;;17.17;100.00
5356;BME280;70449;52.486;13.386;2023-06-01T02:09:20;101194.16;;;16.76;100.00
5356;BME280;70449;52.486;13.386;2023-06-01T02:11:47;101198.25;;;16.96;100.00
5356;BME280;70449;52.486;13.386;2023-06-01T02:14:14;101199.03;;;16.97;100.00
5356;BME280;70449;52.486;13.386;2023-06-01T02:16:41;101192.47;;;16.75;100.00
5356;BME280;70449;52.486;13.386;2023-06-01T02:19:11;101201.47;;;16.81;100.00
5356;BME280;70449;52.486;13.386;2023-06-01T02:21:41;101196.69;;;16.64;100.00
5356;BME280;70449;52.486;13.386;2023-06-01T02:24:09;101201.91;;;16.57;100.00
5356;BME280;70449;52.486;13.386;2023-06-01T02:26:36;101198.31;;;16.48;100.00
5356;BME280;70449;52.486;13.386;2023-06-01T02:29:03;101205.84;;;16.16;100.00
5356;BME280;70449;52.486;13.386;2023-06-01T02:31:32;101197.00;;;16.54;100.00
5356;BME280;70449;52.486;13.386;2023-06-01T02:34:00;101194.69;;;16.39;100.00
5356;BME280;70449;52.486;13.386;2023-06-01T02:36:29;101195.44;;;16.13;100.00
5356;BME280;70449;52.486;13.386;2023-06-01T02:38:57;101189.44;;;16.20;100.00
5356;BME280;70449;52.486;13.386;2023-06-01T02:41:25;101187.84;;;16.27;100.00
5356;BME280;70449;52.486;13.386;2023-06-01T02:43:52;101191.31;;;16.02;100.00
5356;BME280;70449;52.486;13.386;2023-06-01T02:46:19;101197.09;;;15.83;100.00
5356;BME280;70449;52.486;13.386;2023-06-01T02:48:48;101188.03;;;16.00;100.00
5356;BME280;70449;52.486;13.386;2023-06-01T02:51:16;101194.50;;;15.86;100.00
5356;BME280;70449;52.486;13.386;2023-06-01T02:53:45;101198.94;;;15.65;100.00
5356;BME280;70449;52.486;13.386;2023-06-01T02:56:13;101197.19;;;15.47;100.00
5356;BME280;70449;52.486;13.386;2023-06-01T02:58:40;101196.69;;;15.22;100.00
5356;BME280;70449;52.486;13.386;2023-06-01T03:01:08;101191.66;;;15.47;100.00
5356;BME280;70449;52.486;13.386;2023-06-01T03:03:37;101197.69;;;15.26;100.00
5356;BME280;70449;52.486;13.386;2023-06-01T03:06:06;101189.53;;;15.43;100.00
5356;BME280;70449;52.486;13.386;2023-06-01T03:08:34;101185.03;;;15.25;100.00
5356;BME280;70449;52.486;13.386;2023-06-01T03:11:03;101196.53;;;15.50;100.00
5356;BME280;70449;52.486;13.386;2023-06-01T03:13:30;101202.34;;;15.39;100.00
5356;BME280;70449;52.486;13.386;2023-06-01T03:15:58;101196.31;;;15.15;100.00
5356;BME280;70449;52.486;13.386;2023-06-01T03:18:25;101196.84;;;15.03;100.00
5356;BME280;70449;52.486;13.386;2023-06-01T03:20:52;101201.09;;;15.46;100.00
5356;BME280;70449;52.486;13.386;2023-06-01T03:23:19;101202.97;;;15.36;100.00
5356;BME280;70449;52.486;13.386;2023-06-01T03:25:48;101204.09;;;15.13;100.00
5356;BME280;70449;52.486;13.386;2023-06-01T03:28:16;101201.47;;;15.08;100.00
5356;BME280;70449;52.486;13.386;2023-06-01T03:30:44;101206.59;;;15.46;100.00
5356;BME280;70449;52.486;13.386;2023-06-01T03:33:12;101200.22;;;15.36;100.00
5356;BME280;70449;52.486;13.386;2023-06-01T03:35:39;101209.50;;;15.40;100.00
5356;BME280;70449;52.486;13.386;2023-06-01T03:38:07;101205.63;;;15.41;100.00
5356;BME280;70449;52.486;13.386;2023-06-01T03:40:35;101212.13;;;15.01;100.00
5356;BME280;70449;52.486;13.386;2023-06-01T03:43:02;101207.28;;;14.84;100.00
5356;BME280;70449;52.486;13.386;2023-06-01T03:45:31;101214.69;;;14.61;100.00
5356;BME280;70449;52.486;13.386;2023-06-01T03:47:58;101213.63;;;14.70;100.00
5356;BME280;70449;52.486;13.386;2023-06-01T03:50:26;101206.25;;;14.80;100.00
5356;BME280;70449;52.486;13.386;2023-06-01T03:52:53;101207.50;;;14.73;100.00
5356;BME280;70449;52.486;13.386;2023-06-01T03:55:21;101209.38;;;14.37;100.00
5356;BME280;70449;52.486;13.386;2023-06-01T03:57:48;101210.59;;;14.58;100.00
5356;BME280;70449;52.486;13.386;2023-06-01T04:00:16;101221.00;;;14.20;100.00
5356;BME280;70449;52.486;13.386;2023-06-01T04:02:53;101218.06;;;14.16;100.00
5356;BME280;70449;52.486;13.386;2023-06-01T04:05:21;101208.13;;;14.43;100.00
5356;BME280;70449;52.486;13.386;2023-06-01T04:07:50;101196.69;;;14.49;100.00
5356;BME280;70449;52.486;13.386;2023-06-01T04:10:18;101199.75;;;14.20;100.00
5356;BME280;70449;52.486;13.386;2023-06-01T04:12:47;101199.97;;;14.51;100.00
5356;BME280;70449;52.486;13.386;2023-06-01T04:15:17;101202.81;;;13.91;100.00
5356;BME280;70449;52.486;13.386;2023-06-01T04:17:44;101206.31;;;14.11;100.00
5356;BME280;70449;52.486;13.386;2023-06-01T04:20:15;101205.50;;;14.10;100.00
5356;BME280;70449;52.486;13.386;2023-06-01T04:22:44;101217.03;;;13.98;100.00
5356;BME280;70449;52.486;13.386;2023-06-01T04:25:15;101216.50;;;14.24;100.00
5356;BME280;70449;52.486;13.386;2023-06-01T04:27:45;101213.34;;;14.17;100.00
5356;BME280;70449;52.486;13.386;2023-06-01T04:30:13;101212.41;;;14.35;100.00
5356;BME280;70449;52.486;13.386;2023-06-01T04:32:41;101215.19;;;14.07;100.00
5356;BME280;70449;52.486;13.386;2023-06-01T04:35:10;101217.53;;;14.14;100.00
5356;BME280;70449;52.486;13.386;2023-06-01T04:37:41;101228.75;;;13.90;100.00
5356;BME280;70449;52.486;13.386;2023-06-01T04:40:09;101213.00;;;13.77;100.00
5356;BME280;70449;52.486;13.386;2023-06-01T04:42:41;101227.31;;;13.46;100.00
5356;BME280;70449;52.486;13.386;2023-06-01T04:45:12;101230.34;;;13.64;100.00
5356;BME280;70449;52.486;13.386;2023-06-01T04:47:39;101241.44;;;13.58;100.00
5356;BME280;70449;52.486;13.386;2023-06-01T04:50:08;101231.22;;;13.59;100.00
5356;BME280;70449;52.486;13.386;2023-06-01T04:52:36;101238.25;;;13.51;100.00
5356;BME280;70449;52.486;13.386;2023-06-01T04:55:06;101234.50;;;13.61;100.00
5356;BME280;70449;52.486;13.386;2023-06-01T04:57:35;101239.44;;;13.45;100.00
5356;BME280;70449;52.486;13.386;2023-06-01T05:00:04;101251.06;;;13.42;100.00
5356;BME280;70449;52.486;13.386;2023-06-01T05:02:37;101243.03;;;13.46;100.00
5356;BME280;70449;52.486;13.386;2023-06-01T05:05:06;101237.69;;;13.16;100.00
5356;BME280;70449;52.486;13.386;2023-06-01T05:07:34;101245.94;;;12.98;100.00
5356;BME280;70449;52.486;13.386;2023-06-01T05:10:04;101237.13;;;12.96;100.00
5356;BME280;70449;52.486;13.386;2023-06-01T05:12:32;101238.41;;;12.65;100.00
5356;BME280;70449;52.486;13.386;2023-06-01T05:15:00;101248.22;;;12.71;100.00
5356;BME280;70449;52.486;13.386;2023-06-01T05:17:27;101241.31;;;12.74;100.00
5356;BME280;70449;52.486;13.386;2023-06-01T05:19:55;101241.16;;;12.65;100.00
5356;BME280;70449;52.486;13.386;2023-06-01T05:22:22;101234.59;;;12.61;100.00
5356;BME280;70449;52.486;13.386;2023-06-01T05:24:50;101240.00;;;12.90;100.00
5356;BME280;70449;52.486;13.386;2023-06-01T05:27:19;101233.00;;;12.79;100.00
5356;BME280;70449;52.486;13.386;2023-06-01T05:29:47;101231.44;;;13.30;100.00
5356;BME280;70449;52.486;13.386;2023-06-01T05:32:16;101234.31;;;13.38;100.00
5356;BME280;70449;52.486;13.386;2023-06-01T05:34:43;101237.13;;;13.52;100.00
5356;BME280;70449;52.486;13.386;2023-06-01T05:37:10;101230.81;;;12.95;100.00
5356;BME280;70449;52.486;13.386;2023-06-01T05:39:37;101236.03;;;13.15;100.00
5356;BME280;70449;52.486;13.386;2023-06-01T05:42:06;101238.88;;;13.10;100.00
5356;BME280;70449;52.486;13.386;2023-06-01T05:44:34;101236.03;;;13.15;100.00
5356;BME280;70449;52.486;13.386;2023-06-01T05:47:01;101256.72;;;12.94;100.00
5356;BME280;70449;52.486;13.386;2023-06-01T05:49:29;101249.72;;;13.21;100.00
5356;BME280;70449;52.486;13.386;2023-06-01T05:51:57;101242.00;;;13.23;100.00
5356;BME280;70449;52.486;13.386;2023-06-01T05:54:25;101247.81;;;13.73;100.00
5356;BME280;70449;52.486;13.386;2023-06-01T05:56:52;101254.19;;;13.54;100.00
5356;BME280;70449;52.486;13.386;2023-06-01T05:59:19;101245.69;;;13.97;100.00
5356;BME280;70449;52.486;13.386;2023-06-01T06:01:48;101244.69;;;13.93;100.00
5356;BME280;70449;52.486;13.386;2023-06-01T06:04:16;101243.53;;;13.94;100.00
5356;BME280;70449;52.486;13.386;2023-06-01T06:06:43;101241.22;;;14.29;100.00
5356;BME280;70449;52.486;13.386;2023-06-01T06:09:11;101255.78;;;13.88;100.00
5356;BME280;70449;52.486;13.386;2023-06-01T06:11:39;101245.91;;;13.87;100.00
5356;BME280;70449;52.486;13.386;2023-06-01T06:14:07;101244.16;;;13.91;100.00
5356;BME280;70449;52.486;13.386;2023-06-01T06:16:37;101239.19;;;14.35;100.00
5356;BME280;70449;52.486;13.386;2023-06-01T06:19:09;101249.16;;;13.89;100.00
5356;BME280;70449;52.486;13.386;2023-06-01T06:21:37;101249.16;;;13.89;100.00
5356;BME280;70449;52.486;13.386;2023-06-01T06:24:05;101237.81;;;13.44;100.00
5356;BME280;70449;52.486;13.386;2023-06-01T06:26:33;101233.66;;;13.28;100.00
5356;BME280;70449;52.486;13.386;2023-06-01T06:29:00;101241.69;;;13.43;100.00
5356;BME280;70449;52.486;13.386;2023-06-01T06:31:27;101250.38;;;13.83;100.00
5356;BME280;70449;52.486;13.386;2023-06-01T06:33:54;101253.72;;;13.47;100.00
5356;BME280;70449;52.486;13.386;2023-06-01T06:36:23;101249.28;;;13.51;100.00
5356;BME280;70449;52.486;13.386;2023-06-01T06:38:50;101236.91;;;13.81;100.00
5356;BME280;70449;52.486;13.386;2023-06-01T06:41:18;101246.75;;;13.36;100.00
5356;BME280;70449;52.486;13.386;2023-06-01T06:43:46;101249.97;;;13.57;100.00
5356;BME280;70449;52.486;13.386;2023-06-01T06:46:14;101239.00;;;13.38;100.00
5356;BME280;70449;52.486;13.386;2023-06-01T06:48:41;101245.66;;;13.70;100.00
5356;BME280;70449;52.486;13.386;2023-06-01T06:51:09;101244.59;;;13.66;100.00
5356;BME280;70449;52.486;13.386;2023-06-01T06:53:38;101242.78;;;13.61;100.00
5356;BME280;70449;52.486;13.386;2023-06-01T06:56:05;101234.84;;;13.41;100.00
5356;BME280;70449;52.486;13.386;2023-06-01T06:58:34;101241.75;;;13.71;100.00
5356;BME280;70449;52.486;13.386;2023-06-01T07:01:01;101228.13;;;13.93;100.00
5356;BME280;70449;52.486;13.386;2023-06-01T07:03:33;101242.81;;;13.89;100.00
5356;BME280;70449;52.486;13.386;2023-06-01T07:06:00;101235.88;;;13.91;100.00
5356;BME280;70449;52.486;13.386;2023-06-01T07:08:28;101245.47;;;13.80;100.00
5356;BME280;70449;52.486;13.386;2023-06-01T07:11:01;101226.31;;;14.02;100.00
5356;BME280;70449;52.486;13.386;2023-06-01T07:13:29;101233.34;;;14.09;100.00
5356;BME280;70449;52.486;13.386;2023-06-01T07:15:56;101233.13;;;13.91;100.00
5356;BME280;70449;52.486;13.386;2023-06-01T07:18:23;101237.25;;;14.35;100.00
5356;BME280;70449;52.486;13.386;2023-06-01T07:20:50;101240.31;;;14.34;100.00
5356;BME280;70449;52.486;13.386;2023-06-01T07:23:18;101226.09;;;14.68;100.00
5356;BME280;70449;52.486;13.386;2023-06-01T07:25:45;101237.22;;;14.21;100.00
5356;BME280;70449;52.486;13.386;2023-06-01T07:28:14;101230.00;;;14.67;100.00
5356;BME280;70449;52.486;13.386;2023-06-01T07:30:41;101220.19;;;14.74;100.00
5356;BME280;70449;52.486;13.386;2023-06-01T07:33:08;101232.66;;;14.72;100.00
5356;BME280;70449;52.486;13.386;2023-06-01T07:35:36;101230.38;;;14.74;100.00
5356;BME280;70449;52.486;13.386;2023-06-01T07:38:03;101226.31;;;15.08;100.00
5356;BME280;70449;52.486;13.386;2023-06-01T07:40:33;101229.25;;;15.11;100.00
5356;BME280;70449;52.486;13.386;2023-06-01T07:43:00;101229.69;;;15.50;100.00
5356;BME280;70449;52.486;13.386;2023-06-01T07:45:29;101216.28;;;15.34;100.00
5356;BME280;70449;52.486;13.386;2023-06-01T07:47:56;101223.44;;;15.35;100.00
5356;BME280;70449;52.486;13.386;2023-06-01T07:50:23;101223.03;;;14.83;100.00
5356;BME280;70449;52.486;13.386;2023-06-01T07:52:54;101216.31;;;14.62;100.00
5356;BME280;70449;52.486;13.386;2023-06-01T07:55:21;101218.88;;;15.53;100.00
5356;BME280;70449;52.486;13.386;2023-06-01T07:57:49;101205.69;;;14.91;100.00
5356;BME280;70449;52.486;13.386;2023-06-01T08:00:17;101213.34;;;14.94;100.00
5356;BME280;70449;52.486;13.386;2023-06-01T08:02:47;101209.75;;;15.30;100.00
5356;BME280;70449;52.486;13.386;2023-06-01T08:05:15;101222.84;;;14.66;100.00
5356;BME280;70449;52.486;13.386;2023-06-01T08:07:43;101204.81;;;14.82;100.00
5356;BME280;70449;52.486;13.386;2023-06-01T08:10:12;101210.69;;;14.67;100.00
5356;BME280;70449;52.486;13.386;2023-06-01T08:12:40;101202.72;;;15.02;100.00
5356;BME280;70449;52.486;13.386;2023-06-01T08:15:10;101217.53;;;15.28;100.00
5356;BME280;70449;52.486;13.386;2023-06-01T08:17:38;101210.50;;;14.86;100.00
5356;BME280;70449;52.486;13.386;2023-06-01T08:20:08;101206.00;;;15.04;100.00
5356;BME280;70449;52.486;13.386;2023-06-01T08:22:38;101199.88;;;15.60;100.00
5356;BME280;70449;52.486;13.386;2023-06-01T08:25:07;101213.50;;;15.79;100.00
5356;BME280;70449;52.486;13.386;2023-06-01T08:27:34;101192.47;;;15.02;100.00
5356;BME280;70449;52.486;13.386;2023-06-01T08:30:03;101195.69;;;14.95;100.00
5356;BME280;70449;52.486;13.386;2023-06-01T08:32:30;101202.13;;;15.81;100.00
5356;BME280;70449;52.486;13.386;2023-06-01T08:34:57;101193.16;;;15.75;100.00
5356;BME280;70449;52.486;13.386;2023-06-01T08:37:27;101196.03;;;15.70;100.00
5356;BME280;70449;52.486;13.386;2023-06-01T08:39:55;101186.97;;;16.09;100.00
5356;BME280;70449;52.486;13.386;2023-06-01T08:42:29;101189.97;;;15.59;100.00
5356;BME280;70449;52.486;13.386;2023-06-01T08:44:58;101190.78;;;15.60;100.00
5356;BME280;70449;52.486;13.386;2023-06-01T08:47:25;101188.59;;;15.79;100.00
5356;BME280;70449;52.486;13.386;2023-06-01T08:49:53;101184.88;;;16.15;100.00
5356;BME280;70449;52.486;13.386;2023-06-01T08:52:28;101182.94;;;16.24;100.00
5356;BME280;70449;52.486;13.386;2023-06-01T08:54:58;101179.34;;;16.15;100.00
5356;BME280;70449;52.486;13.386;2023-06-01T08:57:27;101187.19;;;16.30;100.00
5356;BME280;70449;52.486;13.386;2023-06-01T08:59:55;101169.97;;;16.51;100.00
5356;BME280;70449;52.486;13.386;2023-06-01T09:02:23;101171.34;;;16.97;100.00
5356;BME280;70449;52.486;13.386;2023-06-01T09:04:51;101171.66;;;16.95;100.00
5356;BME280;70449;52.486;13.386;2023-06-01T09:07:18;101210.34;;;16.52;100.00
5356;BME280;70449;52.486;13.386;2023-06-01T09:09:48;101188.72;;;16.71;100.00
5356;BME280;70449;52.486;13.386;2023-06-01T09:12:23;101172.09;;;16.45;100.00
5356;BME280;70449;52.486;13.386;2023-06-01T09:15:07;101168.84;;;16.52;100.00
5356;BME280;70449;52.486;13.386;2023-06-01T09:17:34;101168.09;;;16.77;100.00
5356;BME280;70449;52.486;13.386;2023-06-01T09:20:03;101171.34;;;17.06;100.00
5356;BME280;70449;52.486;13.386;2023-06-01T09:22:42;101170.34;;;17.10;100.00
5356;BME280;70449;52.486;13.386;2023-06-01T09:25:13;101170.34;;;17.10;100.00
5356;BME280;70449;52.486;13.386;2023-06-01T09:27:46;101158.28;;;17.23;100.00
5356;BME280;70449;52.486;13.386;2023-06-01T09:30:15;101183.72;;;16.82;100.00
5356;BME280;70449;52.486;13.386;2023-06-01T09:32:43;101174.38;;;16.61;100.00
5356;BME280;70449;52.486;13.386;2023-06-01T09:35:13;101166.78;;;17.01;100.00
5356;BME280;70449;52.486;13.386;2023-06-01T09:37:55;101142.50;;;17.80;100.00
5356;BME280;70449;52.486;13.386;2023-06-01T09:40:24;101141.91;;;17.48;100.00
5356;BME280;70449;52.486;13.386;2023-06-01T09:42:51;101140.13;;;17.99;100.00
5356;BME280;70449;52.486;13.386;2023-06-01T09:45:21;101171.69;;;17.68;100.00
5356;BME280;70449;52.486;13.386;2023-06-01T09:47:50;101132.56;;;18.08;100.00
5356;BME280;70449;52.486;13.386;2023-06-01T09:50:34;101138.25;;;17.82;100.00
5356;BME280;70449;52.486;13.386;2023-06-01T09:53:03;101134.38;;;18.04;100.00
5356;BME280;70449;52.486;13.386;2023-06-01T09:55:32;101126.16;;;18.17;100.00
5356;BME280;70449;52.486;13.386;2023-06-01T09:58:18;101137.91;;;18.43;100.00
5356;BME280;70449;52.486;13.386;2023-06-01T10:00:48;101128.53;;;18.27;100.00
5356;BME280;70449;52.486;13.386;2023-06-01T10:03:16;101119.06;;;18.28;100.00
5356;BME280;70449;52.486;13.386;2023-06-01T10:05:44;101120.84;;;18.53;100.00
5356;BME280;70449;52.486;13.386;2023-06-01T10:08:13;101131.75;;;18.58;100.00
5356;BME280;70449;52.486;13.386;2023-06-01T10:10:44;101108.66;;;18.88;100.00
5356;BME280;70449;52.486;13.386;2023-06-01T10:13:11;101110.97;;;19.19;100.00
5356;BME280;70449;52.486;13.386;2023-06-01T10:15:39;101117.25;;;19.28;100.00
5356;BME280;70449;52.486;13.386;2023-06-01T10:18:07;101105.75;;;18.84;100.00
5356;BME280;70449;52.486;13.386;2023-06-01T10:20:36;101104.84;;;18.50;100.00
5356;BME280;70449;52.486;13.386;2023-06-01T10:23:04;101108.06;;;18.61;100.00
5356;BME280;70449;52.486;13.386;2023-06-01T10:25:40;101108.56;;;19.75;100.00
5356;BME280;70449;52.486;13.386;2023-06-01T10:28:11;101114.19;;;19.54;100.00
5356;BME280;70449;52.486;13.386;2023-06-01T10:30:39;101100.66;;;19.07;100.00
5356;BME280;70449;52.486;13.386;2023-06-01T10:33:07;101105.00;;;18.96;100.00
5356;BME280;70449;52.486;13.386;2023-06-01T10:36:01;101100.38;;;19.45;100.00
5356;BME280;70449;52.486;13.386;2023-06-01T10:38:31;101095.09;;;19.77;100.00
5356;BME280;70449;52.486;13.386;2023-06-01T10:41:30;101093.66;;;19.59;100.00
5356;BME280;70449;52.486;13.386;2023-06-01T10:43:59;101093.94;;;19.90;100.00
5356;BME280;70449;52.486;13.386;2023-06-01T10:46:41;101090.44;;;20.06;100.00
5356;BME280;70449;52.486;13.386;2023-06-01T10:49:08;101096.84;;;19.82;100.00
5356;BME280;70449;52.486;13.386;2023-06-01T10:51:36;101089.53;;;19.65;100.00
5356;BME280;70449;52.486;13.386;2023-06-01T10:54:27;101111.03;;;19.56;100.00
5356;BME280;70449;52.486;13.386;2023-06-01T10:57:21;101076.03;;;20.28;100.00
5356;BME280;70449;52.486;13.386;2023-06-01T11:00:17;101078.66;;;19.84;100.00
5356;BME280;70449;52.486;13.386;2023-06-01T11:02:53;101071.16;;;20.25;100.00
5356;BME280;70449;52.486;13.386;2023-06-01T11:05:42;101075.56;;;19.40;100.00
5356;BME280;70449;52.486;13.386;2023-06-01T11:08:53;101076.75;;;20.25;100.00
5356;BME280;70449;52.486;13.386;2023-06-01T11:11:23;101067.00;;;20.19;100.00
5356;BME280;70449;52.486;13.386;2023-06-01T11:14:11;101080.00;;;20.03;100.00
5356;BME280;70449;52.486;13.386;2023-06-01T11:16:40;101057.28;;;20.13;100.00
5356;BME280;70449;52.486;13.386;2023-06-01T11:19:08;101058.78;;;20.10;100.00
5356;BME280;70449;52.486;13.386;2023-06-01T11:21:39;101054.72;;;20.20;100.00
5356;BME280;70449;52.486;13.386;2023-06-01T11:24:11;101061.53;;;20.75;100.00
5356;BME280;70449;52.486;13.386;2023-06-01T11:26:41;101064.56;;;20.70;100.00
5356;BME280;70449;52.486;13.386;2023-06-01T11:29:16;101053.72;;;20.53;100.00
5356;BME280;70449;52.486;13.386;2023-06-01T11:31:48;101047.84;;;21.14;100.00
5356;BME280;70449;52.486;13.386;2023-06-01T11:34:17;101044.66;;;20.44;100.00
5356;BME280;70449;52.486;13.386;2023-06-01T11:36:47;101037.13;;;20.56;100.00
5356;BME280;70449;52.486;13.386;2023-06-01T11:39:20;101041.28;;;21.22;100.00
5356;BME280;70449;52.486;13.386;2023-06-01T11:41:50;101036.16;;;21.24;99.14
5356;BME280;70449;52.486;13.386;2023-06-01T11:44:18;101028.88;;;21.04;100.00
5356;BME280;70449;52.486;13.386;2023-06-01T11:46:54;101035.38;;;21.40;100.00
5356;BME280;70449;52.486;13.386;2023-06-01T11:49:22;101031.28;;;20.90;100.00
5356;BME280;70449;52.486;13.386;2023-06-01T11:51:50;101027.06;;;20.96;100.00
5356;BME280;70449;52.486;13.386;2023-06-01T11:54:23;101039.88;;;20.84;100.00
5356;BME280;70449;52.486;13.386;2023-06-01T11:56:52;101040.44;;;21.50;100.00
5356;BME280;70449;52.486;13.386;2023-06-01T11:59:21;101025.09;;;21.76;96.43
5356;BME280;70449;52.486;13.386;2023-06-01T12:01:50;101037.09;;;21.60;98.03
5356;BME280;70449;52.486;13.386;2023-06-01T12:04:21;101041.31;;;21.54;97.28
5356;BME280;70449;52.486;13.386;2023-06-01T12:06:50;101029.19;;;20.87;100.00
5356;BME280;70449;52.486;13.386;2023-06-01T12:09:19;101031.44;;;20.97;100.00
5356;BME280;70449;52.486;13.386;2023-06-01T12:11:47;101027.94;;;21.00;100.00
5356;BME280;70449;52.486;13.386;2023-06-01T12:14:15;101025.19;;;21.63;99.47
5356;BME280;70449;52.486;13.386;2023-06-01T12:16:53;101019.38;;;21.37;100.00
5356;BME280;70449;52.486;13.386;2023-06-01T12:19:23;101012.63;;;21.54;98.18
5356;BME280;70449;52.486;13.386;2023-06-01T12:21:52;101001.53;;;21.57;96.80
5356;BME280;70449;52.486;13.386;2023-06-01T12:24:27;101003.56;;;22.47;85.84
5356;BME280;70449;52.486;13.386;2023-06-01T12:26:56;100998.31;;;22.64;87.02
5356;BME280;70449;52.486;13.386;2023-06-01T12:29:39;100996.56;;;22.99;85.59
5356;BME280;70449;52.486;13.386;2023-06-01T12:32:09;100998.09;;;22.34;87.28
5356;BME280;70449;52.486;13.386;2023-06-01T12:34:40;100990.44;;;22.93;85.18
5356;BME280;70449;52.486;13.386;2023-06-01T12:37:15;100985.97;;;22.89;80.00
5356;BME280;70449;52.486;13.386;2023-06-01T12:39:43;100977.78;;;23.72;76.55
5356;BME280;70449;52.486;13.386;2023-06-01T12:42:11;100982.72;;;23.56;73.78
5356;BME280;70449;52.486;13.386;2023-06-01T12:44:38;100978.47;;;23.65;74.39
5356;BME280;70449;52.486;13.386;2023-06-01T12:47:06;100975.31;;;23.93;69.27
5356;BME280;70449;52.486;13.386;2023-06-01T12:49:33;100978.50;;;24.22;67.56
5356;BME280;70449;52.486;13.386;2023-06-01T12:52:04;100980.00;;;24.83;64.36
5356;BME280;70449;52.486;13.386;2023-06-01T12:54:32;100973.53;;;25.17;64.07